sensor_id;sensor_type;location;lat;lon;timestamp;pressure;altitude;pressure_sealevel;temperature;humidity
42289;BME280;30230;47.520;19.016;2023-02-27T00:00:31;99040.97;;;1.38;55.81
42289;BME280;30230;47.520;19.016;2023-02-27T00:02:31;99047.13;;;1.38;55.77
42289;BME280;30230;47.520;19.016;2023-02-27T00:04:32;99056.38;;;1.34;56.34
42289;BME280;30230;47.520;19.016;2023-02-27T00:06:32;99048.63;;;1.23;56.32
42289;BME280;30230;47.520;19.016;2023-02-27T00:08:32;99040.34;;;1.26;56.56
42289;BME280;30230;47.520;19.016;2023-02-27T00:10:33;99049.44;;;1.23;56.26
42289;BME280;30230;47.520;19.016;2023-02-27T00:12:34;99067.03;;;1.34;56.21
42289;BME280;30230;47.520;19.016;2023-02-27T00:14:38;99068.41;;;1.38;56.15
42289;BME280;30230;47.520;19.016;2023-02-27T00:16:38;99045.03;;;1.14;57.35
42289;BME280;30230;47.520;19.016;2023-02-27T00:18:38;99062.84;;;1.32;56.49
42289;BME280;30230;47.520;19.016;2023-02-27T00:20:39;99074.16;;;1.34;56.13
42289;BME280;30230;47.520;19.016;2023-02-27T00:22:40;99076.31;;;1.30;56.89
42289;BME280;30230;47.520;19.016;2023-02-27T00:24:41;99073.56;;;1.22;56.65
42289;BME280;30230;47.520;19.016;2023-02-27T00:26:41;99078.31;;;1.18;56.90
42289;BME280;30230;47.520;19.016;2023-02-27T00:28:41;99087.06;;;1.11;57.75
42289;BME280;30230;47.520;19.016;2023-02-27T00:30:42;99081.13;;;1.17;57.16
42289;BME280;30230;47.520;19.016;2023-02-27T00:32:43;99084.63;;;1.17;57.00
42289;BME280;30230;47.520;19.016;2023-02-27T00:34:43;99085.81;;;1.05;57.53
42289;BME280;30230;47.520;19.016;2023-02-27T00:36:44;99082.47;;;1.03;57.67
42289;BME280;30230;47.520;19.016;2023-02-27T00:38:44;99081.22;;;0.97;57.36
42289;BME280;30230;47.520;19.016;2023-02-27T00:40:45;99070.78;;;1.14;57.02
42289;BME280;30230;47.520;19.016;2023-02-27T00:42:45;99087.47;;;1.34;56.13
42289;BME280;30230;47.520;19.016;2023-02-27T00:44:47;99084.69;;;1.08;56.79
42289;BME280;30230;47.520;19.016;2023-02-27T00:46:48;99084.16;;;1.04;56.96
42289;BME280;30230;47.520;19.016;2023-02-27T00:48:48;99094.91;;;1.02;56.72
42289;BME280;30230;47.520;19.016;2023-02-27T00:50:49;99091.34;;;0.94;57.04
42289;BME280;30230;47.520;19.016;2023-02-27T00:52:49;99099.31;;;0.94;56.63
42289;BME280;30230;47.520;19.016;2023-02-27T00:54:50;99095.13;;;0.91;56.88
42289;BME280;30230;47.520;19.016;2023-02-27T00:56:50;99109.56;;;0.89;57.78
42289;BME280;30230;47.520;19.016;2023-02-27T00:58:51;99102.13;;;0.83;56.99
42289;BME280;30230;47.520;19.016;2023-02-27T01:00:51;99105.56;;;1.02;57.70
42289;BME280;30230;47.520;19.016;2023-02-27T01:02:51;99109.06;;;1.03;57.16
42289;BME280;30230;47.520;19.016;2023-02-27T01:04:52;99109.00;;;0.85;57.09
42289;BME280;30230;47.520;19.016;2023-02-27T01:06:52;99115.00;;;0.87;57.93
42289;BME280;30230;47.520;19.016;2023-02-27T01:08:53;99109.84;;;0.86;57.18
42289;BME280;30230;47.520;19.016;2023-02-27T01:10:56;99119.44;;;0.96;57.48
42289;BME280;30230;47.520;19.016;2023-02-27T01:12:56;99112.47;;;0.95;57.08
42289;BME280;30230;47.520;19.016;2023-02-27T01:14:57;99122.09;;;0.96;57.56
42289;BME280;30230;47.520;19.016;2023-02-27T01:16:57;99125.00;;;1.03;57.83
42289;BME280;30230;47.520;19.016;2023-02-27T01:18:57;99114.97;;;0.97;56.97
42289;BME280;30230;47.520;19.016;2023-02-27T01:20:58;99123.78;;;0.97;56.83
42289;BME280;30230;47.520;19.016;2023-02-27T01:22:58;99102.44;;;0.80;56.94
42289;BME280;30230;47.520;19.016;2023-02-27T01:24:59;99115.94;;;0.96;57.34
42289;BME280;30230;47.520;19.016;2023-02-27T01:27:00;99101.59;;;0.89;58.04
42289;BME280;30230;47.520;19.016;2023-02-27T01:29:00;99124.94;;;0.85;58.13
42289;BME280;30230;47.520;19.016;2023-02-27T01:31:01;99128.84;;;0.91;57.00
42289;BME280;30230;47.520;19.016;2023-02-27T01:33:01;99133.75;;;0.86;56.72
42289;BME280;30230;47.520;19.016;2023-02-27T01:35:02;99120.63;;;0.84;57.12
42289;BME280;30230;47.520;19.016;2023-02-27T01:37:02;99118.41;;;0.80;56.91
42289;BME280;30230;47.520;19.016;2023-02-27T01:39:03;99114.56;;;0.92;56.21
42289;BME280;30230;47.520;19.016;2023-02-27T01:41:04;99116.63;;;0.98;56.02
42289;BME280;30230;47.520;19.016;2023-02-27T01:43:11;99120.09;;;1.08;56.07
42289;BME280;30230;47.520;19.016;2023-02-27T01:47:28;99110.25;;;0.91;55.89
42289;BME280;30230;47.520;19.016;2023-02-27T01:49:33;99093.66;;;0.69;55.35
42289;BME280;30230;47.520;19.016;2023-02-27T01:51:38;99110.69;;;0.76;56.58
42289;BME280;30230;47.520;19.016;2023-02-27T01:53:42;99119.06;;;0.91;56.52
42289;BME280;30230;47.520;19.016;2023-02-27T01:55:45;99123.00;;;0.77;55.98
42289;BME280;30230;47.520;19.016;2023-02-27T01:57:48;99119.59;;;0.95;56.02
42289;BME280;30230;47.520;19.016;2023-02-27T01:59:49;99125.91;;;0.94;56.40
42289;BME280;30230;47.520;19.016;2023-02-27T02:01:50;99117.91;;;1.03;55.58
42289;BME280;30230;47.520;19.016;2023-02-27T02:04:03;99128.66;;;1.02;55.41
42289;BME280;30230;47.520;19.016;2023-02-27T02:06:06;99116.81;;;0.87;55.64
42289;BME280;30230;47.520;19.016;2023-02-27T02:08:07;99135.72;;;0.93;56.07
42289;BME280;30230;47.520;19.016;2023-02-27T02:10:10;99135.75;;;0.84;55.68
42289;BME280;30230;47.520;19.016;2023-02-27T02:12:14;99123.66;;;0.99;56.09
42289;BME280;30230;47.520;19.016;2023-02-27T02:14:15;99133.75;;;0.95;56.03
42289;BME280;30230;47.520;19.016;2023-02-27T02:44:16;99167.03;;;0.99;54.68
42289;BME280;30230;47.520;19.016;2023-02-27T02:46:30;99164.78;;;1.04;55.22
42289;BME280;30230;47.520;19.016;2023-02-27T02:48:51;99168.47;;;0.94;55.43
42289;BME280;30230;47.520;19.016;2023-02-27T02:51:04;99170.16;;;0.85;54.98
42289;BME280;30230;47.520;19.016;2023-02-27T02:53:13;99181.31;;;0.98;54.79
42289;BME280;30230;47.520;19.016;2023-02-27T02:55:34;99171.22;;;1.02;54.72
42289;BME280;30230;47.520;19.016;2023-02-27T02:57:38;99174.19;;;0.99;55.69
42289;BME280;30230;47.520;19.016;2023-02-27T02:59:54;99164.91;;;1.03;55.24
42289;BME280;30230;47.520;19.016;2023-02-27T03:02:03;99177.84;;;0.88;54.73
42289;BME280;30230;47.520;19.016;2023-02-27T03:04:14;99174.75;;;0.93;54.49
42289;BME280;30230;47.520;19.016;2023-02-27T03:06:29;99181.75;;;0.94;54.21
42289;BME280;30230;47.520;19.016;2023-02-27T03:08:33;99180.34;;;0.99;54.24
42289;BME280;30230;47.520;19.016;2023-02-27T03:10:45;99178.50;;;1.00;54.85
42289;BME280;30230;47.520;19.016;2023-02-27T03:12:53;99182.84;;;1.01;53.83
42289;BME280;30230;47.520;19.016;2023-02-27T03:15:21;99192.22;;;1.05;54.93
42289;BME280;30230;47.520;19.016;2023-02-27T03:17:28;99185.78;;;0.98;54.18
42289;BME280;30230;47.520;19.016;2023-02-27T03:19:42;99193.31;;;1.12;54.33
42289;BME280;30230;47.520;19.016;2023-02-27T03:21:58;99200.78;;;0.99;54.30
42289;BME280;30230;47.520;19.016;2023-02-27T03:24:02;99197.00;;;0.92;53.51
42289;BME280;30230;47.520;19.016;2023-02-27T03:26:05;99191.44;;;0.85;53.93
42289;BME280;30230;47.520;19.016;2023-02-27T03:28:07;99201.75;;;0.98;53.74
42289;BME280;30230;47.520;19.016;2023-02-27T03:30:16;99204.06;;;1.20;53.58
42289;BME280;30230;47.520;19.016;2023-02-27T03:32:26;99206.34;;;1.06;53.09
42289;BME280;30230;47.520;19.016;2023-02-27T03:34:35;99212.94;;;1.01;53.77
42289;BME280;30230;47.520;19.016;2023-02-27T03:41:09;99207.88;;;1.08;52.54
42289;BME280;30230;47.520;19.016;2023-02-27T03:45:31;99219.84;;;0.85;53.47
42289;BME280;30230;47.520;19.016;2023-02-27T03:47:34;99215.34;;;0.85;53.38
42289;BME280;30230;47.520;19.016;2023-02-27T03:49:35;99220.34;;;0.98;53.02
42289;BME280;30230;47.520;19.016;2023-02-27T03:51:35;99218.44;;;0.90;53.69
42289;BME280;30230;47.520;19.016;2023-02-27T03:56:04;99220.13;;;0.82;52.57
42289;BME280;30230;47.520;19.016;2023-02-27T03:58:07;99218.84;;;0.95;53.25
42289;BME280;30230;47.520;19.016;2023-02-27T04:00:11;99229.63;;;0.84;53.54
42289;BME280;30230;47.520;19.016;2023-02-27T04:02:12;99227.09;;;0.83;53.80
42289;BME280;30230;47.520;19.016;2023-02-27T04:04:15;99221.78;;;0.83;53.58
42289;BME280;30230;47.520;19.016;2023-02-27T04:06:16;99219.28;;;0.71;54.57
42289;BME280;30230;47.520;19.016;2023-02-27T04:08:47;99217.13;;;1.04;53.41
42289;BME280;30230;47.520;19.016;2023-02-27T04:15:36;99229.91;;;0.81;52.90
42289;BME280;30230;47.520;19.016;2023-02-27T04:24:31;99234.53;;;0.89;53.67
42289;BME280;30230;47.520;19.016;2023-02-27T04:26:48;99239.44;;;0.74;53.10
42289;BME280;30230;47.520;19.016;2023-02-27T04:29:19;99240.81;;;0.88;53.57
42289;BME280;30230;47.520;19.016;2023-02-27T04:33:56;99246.66;;;1.01;53.08
42289;BME280;30230;47.520;19.016;2023-02-27T04:36:07;99242.78;;;0.86;53.61
42289;BME280;30230;47.520;19.016;2023-02-27T04:38:29;99253.28;;;0.77;52.77
42289;BME280;30230;47.520;19.016;2023-02-27T04:40:38;99253.41;;;0.86;52.95
42289;BME280;30230;47.520;19.016;2023-02-27T04:42:49;99248.53;;;0.81;54.26
42289;BME280;30230;47.520;19.016;2023-02-27T04:44:57;99244.63;;;0.75;54.11
42289;BME280;30230;47.520;19.016;2023-02-27T04:47:00;99245.59;;;0.84;52.75
42289;BME280;30230;47.520;19.016;2023-02-27T04:49:09;99251.59;;;0.76;52.67
42289;BME280;30230;47.520;19.016;2023-02-27T04:51:15;99254.69;;;0.72;52.98
42289;BME280;30230;47.520;19.016;2023-02-27T04:53:21;99256.91;;;0.96;53.26
42289;BME280;30230;47.520;19.016;2023-02-27T04:55:30;99254.81;;;0.90;52.47
42289;BME280;30230;47.520;19.016;2023-02-27T04:57:39;99254.25;;;0.96;52.79
42289;BME280;30230;47.520;19.016;2023-02-27T04:59:44;99251.75;;;0.85;52.49
42289;BME280;30230;47.520;19.016;2023-02-27T05:01:54;99267.41;;;0.88;52.26
42289;BME280;30230;47.520;19.016;2023-02-27T05:03:57;99262.63;;;1.01;52.67
42289;BME280;30230;47.520;19.016;2023-02-27T05:05:59;99264.59;;;0.99;52.13
42289;BME280;30230;47.520;19.016;2023-02-27T05:08:06;99260.72;;;0.84;52.07
42289;BME280;30230;47.520;19.016;2023-02-27T05:10:30;99255.25;;;0.75;52.13
42289;BME280;30230;47.520;19.016;2023-02-27T05:17:04;99277.91;;;0.89;52.20
42289;BME280;30230;47.520;19.016;2023-02-27T05:19:07;99285.72;;;1.10;52.13
42289;BME280;30230;47.520;19.016;2023-02-27T05:28:09;99291.31;;;0.97;51.93
42289;BME280;30230;47.520;19.016;2023-02-27T05:32:47;99293.59;;;0.73;52.52
42289;BME280;30230;47.520;19.016;2023-02-27T05:34:56;99303.53;;;0.90;51.94
42289;BME280;30230;47.520;19.016;2023-02-27T05:37:17;99301.28;;;0.86;51.65
42289;BME280;30230;47.520;19.016;2023-02-27T05:39:22;99314.16;;;0.71;52.11
42289;BME280;30230;47.520;19.016;2023-02-27T05:41:28;99324.63;;;0.82;52.67
42289;BME280;30230;47.520;19.016;2023-02-27T05:43:34;99325.38;;;0.84;51.82
42289;BME280;30230;47.520;19.016;2023-02-27T05:45:38;99317.09;;;0.97;51.06
42289;BME280;30230;47.520;19.016;2023-02-27T05:47:44;99324.06;;;0.98;51.08
42289;BME280;30230;47.520;19.016;2023-02-27T05:49:52;99333.19;;;0.86;52.01
42289;BME280;30230;47.520;19.016;2023-02-27T05:51:56;99327.44;;;0.81;51.32
42289;BME280;30230;47.520;19.016;2023-02-27T05:54:02;99319.88;;;1.05;50.87
42289;BME280;30230;47.520;19.016;2023-02-27T05:56:07;99317.38;;;0.94;51.18
42289;BME280;30230;47.520;19.016;2023-02-27T05:58:29;99329.69;;;0.95;50.07
42289;BME280;30230;47.520;19.016;2023-02-27T06:00:39;99341.00;;;0.87;50.99
42289;BME280;30230;47.520;19.016;2023-02-27T06:02:42;99344.81;;;0.85;51.20
42289;BME280;30230;47.520;19.016;2023-02-27T06:04:44;99340.19;;;0.87;50.56
42289;BME280;30230;47.520;19.016;2023-02-27T06:06:44;99336.81;;;0.75;51.39
42289;BME280;30230;47.520;19.016;2023-02-27T06:08:45;99345.38;;;0.69;50.36
42289;BME280;30230;47.520;19.016;2023-02-27T06:10:46;99352.50;;;0.78;50.81
42289;BME280;30230;47.520;19.016;2023-02-27T06:12:47;99352.34;;;0.70;50.81
42289;BME280;30230;47.520;19.016;2023-02-27T06:14:48;99360.59;;;0.76;51.46
42289;BME280;30230;47.520;19.016;2023-02-27T06:16:48;99364.53;;;0.72;51.44
42289;BME280;30230;47.520;19.016;2023-02-27T06:18:49;99368.31;;;0.89;51.68
42289;BME280;30230;47.520;19.016;2023-02-27T06:20:50;99352.63;;;0.86;51.21
42289;BME280;30230;47.520;19.016;2023-02-27T06:22:51;99368.19;;;0.91;50.94
42289;BME280;30230;47.520;19.016;2023-02-27T06:24:51;99376.72;;;0.94;51.99
42289;BME280;30230;47.520;19.016;2023-02-27T06:26:51;99385.97;;;1.10;50.37
42289;BME280;30230;47.520;19.016;2023-02-27T06:28:52;99374.34;;;0.91;50.99
42289;BME280;30230;47.520;19.016;2023-02-27T06:30:54;99392.94;;;0.91;51.28
42289;BME280;30230;47.520;19.016;2023-02-27T06:32:56;99394.19;;;0.87;51.03
42289;BME280;30230;47.520;19.016;2023-02-27T06:34:56;99399.81;;;0.94;50.09
42289;BME280;30230;47.520;19.016;2023-02-27T06:36:57;99400.50;;;0.96;50.41
42289;BME280;30230;47.520;19.016;2023-02-27T06:38:57;99411.28;;;0.85;49.68
42289;BME280;30230;47.520;19.016;2023-02-27T06:40:57;99409.88;;;0.90;50.65
42289;BME280;30230;47.520;19.016;2023-02-27T06:42:58;99416.31;;;0.88;50.25
42289;BME280;30230;47.520;19.016;2023-02-27T06:44:58;99418.88;;;1.09;55.22
42289;BME280;30230;47.520;19.016;2023-02-27T06:46:59;99414.66;;;1.06;50.89
42289;BME280;30230;47.520;19.016;2023-02-27T06:48:59;99424.72;;;1.12;49.88
42289;BME280;30230;47.520;19.016;2023-02-27T06:50:59;99430.31;;;1.19;50.80
42289;BME280;30230;47.520;19.016;2023-02-27T06:53:00;99430.63;;;1.16;50.68
42289;BME280;30230;47.520;19.016;2023-02-27T06:55:00;99444.19;;;1.22;50.09
42289;BME280;30230;47.520;19.016;2023-02-27T06:57:01;99434.25;;;1.34;49.40
42289;BME280;30230;47.520;19.016;2023-02-27T06:59:01;99446.28;;;1.28;49.64
42289;BME280;30230;47.520;19.016;2023-02-27T07:01:01;99436.78;;;1.36;49.16
42289;BME280;30230;47.520;19.016;2023-02-27T07:03:02;99439.16;;;1.39;49.18
42289;BME280;30230;47.520;19.016;2023-02-27T07:05:04;99428.81;;;1.16;49.82
42289;BME280;30230;47.520;19.016;2023-02-27T07:07:06;99450.22;;;1.34;49.91
42289;BME280;30230;47.520;19.016;2023-02-27T07:09:07;99449.94;;;1.47;50.96
42289;BME280;30230;47.520;19.016;2023-02-27T07:11:07;99443.50;;;1.49;51.67
42289;BME280;30230;47.520;19.016;2023-02-27T07:13:07;99439.44;;;2.12;67.36
42289;BME280;30230;47.520;19.016;2023-02-27T07:15:08;99439.78;;;1.89;49.73
42289;BME280;30230;47.520;19.016;2023-02-27T07:17:09;99446.53;;;1.83;48.71
42289;BME280;30230;47.520;19.016;2023-02-27T07:19:10;99440.03;;;1.96;48.22
42289;BME280;30230;47.520;19.016;2023-02-27T07:21:10;99438.28;;;1.67;48.77
42289;BME280;30230;47.520;19.016;2023-02-27T07:23:11;99445.78;;;1.91;48.24
42289;BME280;30230;47.520;19.016;2023-02-27T07:25:11;99448.91;;;1.87;49.52
42289;BME280;30230;47.520;19.016;2023-02-27T07:27:11;99450.69;;;1.96;47.09
42289;BME280;30230;47.520;19.016;2023-02-27T07:29:12;99450.16;;;1.92;48.68
42289;BME280;30230;47.520;19.016;2023-02-27T07:31:14;99460.44;;;1.77;47.92
42289;BME280;30230;47.520;19.016;2023-02-27T07:33:14;99452.59;;;1.66;48.88
42289;BME280;30230;47.520;19.016;2023-02-27T07:35:14;99457.31;;;1.92;50.30
42289;BME280;30230;47.520;19.016;2023-02-27T07:37:15;99449.78;;;1.77;49.08
42289;BME280;30230;47.520;19.016;2023-02-27T07:39:15;99462.25;;;1.87;48.59
42289;BME280;30230;47.520;19.016;2023-02-27T07:41:16;99463.91;;;1.88;48.89
42289;BME280;30230;47.520;19.016;2023-02-27T07:43:17;99472.06;;;1.67;48.94
42289;BME280;30230;47.520;19.016;2023-02-27T07:45:17;99461.69;;;1.73;49.21
42289;BME280;30230;47.520;19.016;2023-02-27T07:47:17;99457.75;;;1.87;49.68
42289;BME280;30230;47.520;19.016;2023-02-27T07:49:18;99457.44;;;1.90;49.71
42289;BME280;30230;47.520;19.016;2023-02-27T07:51:19;99466.56;;;1.88;48.52
42289;BME280;30230;47.520;19.016;2023-02-27T07:53:19;99472.81;;;2.06;48.74
42289;BME280;30230;47.520;19.016;2023-02-27T07:55:20;99460.50;;;2.05;49.10
42289;BME280;30230;47.520;19.016;2023-02-27T07:57:20;99461.22;;;1.97;48.50
42289;BME280;30230;47.520;19.016;2023-02-27T07:59:20;99458.28;;;1.91;47.81
42289;BME280;30230;47.520;19.016;2023-02-27T08:01:21;99468.22;;;2.08;49.08
42289;BME280;30230;47.520;19.016;2023-02-27T08:03:21;99462.03;;;2.07;49.48
42289;BME280;30230;47.520;19.016;2023-02-27T08:05:22;99470.22;;;2.33;48.52
42289;BME280;30230;47.520;19.016;2023-02-27T08:07:23;99475.38;;;2.45;47.81
42289;BME280;30230;47.520;19.016;2023-02-27T08:09:23;99470.09;;;2.25;48.92
42289;BME280;30230;47.520;19.016;2023-02-27T08:11:24;99459.88;;;2.85;64.34
42289;BME280;30230;47.520;19.016;2023-02-27T08:13:24;99470.22;;;3.34;49.42
42289;BME280;30230;47.520;19.016;2023-02-27T08:15:24;99474.22;;;2.84;46.64
42289;BME280;30230;47.520;19.016;2023-02-27T08:17:25;99468.28;;;2.91;46.73
42289;BME280;30230;47.520;19.016;2023-02-27T08:19:25;99483.59;;;2.61;47.47
42289;BME280;30230;47.520;19.016;2023-02-27T08:21:26;99487.19;;;2.32;48.66
42289;BME280;30230;47.520;19.016;2023-02-27T08:23:27;99485.00;;;2.28;47.34
42289;BME280;30230;47.520;19.016;2023-02-27T08:25:28;99481.59;;;2.26;47.76
42289;BME280;30230;47.520;19.016;2023-02-27T08:27:29;99492.69;;;2.31;49.37
42289;BME280;30230;47.520;19.016;2023-02-27T08:29:29;99493.81;;;2.28;49.15
42289;BME280;30230;47.520;19.016;2023-02-27T08:31:32;99500.63;;;2.41;48.53
42289;BME280;30230;47.520;19.016;2023-02-27T08:33:33;99498.97;;;2.40;47.42
42289;BME280;30230;47.520;19.016;2023-02-27T08:35:33;99499.69;;;2.32;48.29
42289;BME280;30230;47.520;19.016;2023-02-27T08:37:34;99505.00;;;2.32;48.40
42289;BME280;30230;47.520;19.016;2023-02-27T08:39:34;99510.66;;;2.19;48.58
42289;BME280;30230;47.520;19.016;2023-02-27T08:41:35;99515.47;;;2.53;47.88
42289;BME280;30230;47.520;19.016;2023-02-27T08:43:35;99523.47;;;2.53;47.98
42289;BME280;30230;47.520;19.016;2023-02-27T08:45:36;99526.72;;;2.47;47.60
42289;BME280;30230;47.520;19.016;2023-02-27T08:47:36;99530.50;;;2.54;48.68
42289;BME280;30230;47.520;19.016;2023-02-27T08:49:37;99526.81;;;2.65;48.37
42289;BME280;30230;47.520;19.016;2023-02-27T08:51:37;99530.84;;;2.69;48.49
42289;BME280;30230;47.520;19.016;2023-02-27T08:53:38;99534.78;;;2.74;47.35
42289;BME280;30230;47.520;19.016;2023-02-27T08:55:38;99532.94;;;2.75;48.66
42289;BME280;30230;47.520;19.016;2023-02-27T08:57:38;99532.81;;;2.94;47.49
42289;BME280;30230;47.520;19.016;2023-02-27T08:59:39;99544.06;;;2.98;48.64
42289;BME280;30230;47.520;19.016;2023-02-27T09:01:39;99534.53;;;2.95;47.86
42289;BME280;30230;47.520;19.016;2023-02-27T09:03:40;99539.09;;;3.03;46.49
42289;BME280;30230;47.520;19.016;2023-02-27T09:05:41;99532.28;;;3.18;46.27
42289;BME280;30230;47.520;19.016;2023-02-27T09:07:41;99535.81;;;3.36;45.32
42289;BME280;30230;47.520;19.016;2023-02-27T09:09:42;99542.75;;;3.29;45.67
42289;BME280;30230;47.520;19.016;2023-02-27T09:11:42;99538.16;;;3.22;46.90
42289;BME280;30230;47.520;19.016;2023-02-27T09:13:45;99538.78;;;3.33;46.47
42289;BME280;30230;47.520;19.016;2023-02-27T09:15:46;99543.28;;;3.33;46.76
42289;BME280;30230;47.520;19.016;2023-02-27T09:17:46;99546.50;;;3.36;46.27
42289;BME280;30230;47.520;19.016;2023-02-27T09:19:47;99551.06;;;3.26;47.72
42289;BME280;30230;47.520;19.016;2023-02-27T09:21:48;99532.66;;;3.23;46.33
42289;BME280;30230;47.520;19.016;2023-02-27T09:23:49;99551.47;;;3.31;47.25
42289;BME280;30230;47.520;19.016;2023-02-27T09:25:50;99554.03;;;3.23;47.07
42289;BME280;30230;47.520;19.016;2023-02-27T09:27:50;99556.97;;;3.20;46.62
42289;BME280;30230;47.520;19.016;2023-02-27T09:29:50;99555.97;;;3.31;46.73
42289;BME280;30230;47.520;19.016;2023-02-27T09:31:57;99559.16;;;3.34;47.78
42289;BME280;30230;47.520;19.016;2023-02-27T09:33:57;99550.69;;;3.21;47.91
42289;BME280;30230;47.520;19.016;2023-02-27T09:36:00;99547.78;;;3.32;48.02
42289;BME280;30230;47.520;19.016;2023-02-27T09:38:01;99539.63;;;3.16;48.23
42289;BME280;30230;47.520;19.016;2023-02-27T09:40:01;99544.72;;;3.27;46.35
42289;BME280;30230;47.520;19.016;2023-02-27T09:42:36;99556.47;;;3.34;47.05
42289;BME280;30230;47.520;19.016;2023-02-27T09:44:56;99555.69;;;3.24;47.89
42289;BME280;30230;47.520;19.016;2023-02-27T09:46:58;99552.03;;;3.25;47.27
42289;BME280;30230;47.520;19.016;2023-02-27T09:48:59;99553.34;;;3.21;47.77
42289;BME280;30230;47.520;19.016;2023-02-27T09:51:01;99552.53;;;3.38;47.68
42289;BME280;30230;47.520;19.016;2023-02-27T09:53:04;99557.88;;;3.56;46.58
42289;BME280;30230;47.520;19.016;2023-02-27T09:55:12;99561.03;;;3.70;47.54
42289;BME280;30230;47.520;19.016;2023-02-27T09:57:43;99570.38;;;3.56;48.47
42289;BME280;30230;47.520;19.016;2023-02-27T10:01:54;99568.72;;;3.55;47.26
42289;BME280;30230;47.520;19.016;2023-02-27T10:10:59;99548.19;;;3.55;46.15
42289;BME280;30230;47.520;19.016;2023-02-27T10:15:32;99574.69;;;3.84;46.20
42289;BME280;30230;47.520;19.016;2023-02-27T10:17:41;99570.88;;;3.69;46.91
42289;BME280;30230;47.520;19.016;2023-02-27T10:19:44;99569.88;;;3.88;45.72
42289;BME280;30230;47.520;19.016;2023-02-27T10:21:48;99575.97;;;3.80;46.23
42289;BME280;30230;47.520;19.016;2023-02-27T10:24:01;99574.16;;;3.63;46.03
42289;BME280;30230;47.520;19.016;2023-02-27T10:26:05;99569.19;;;3.68;46.42
42289;BME280;30230;47.520;19.016;2023-02-27T10:28:12;99567.75;;;3.74;46.01
42289;BME280;30230;47.520;19.016;2023-02-27T10:30:28;99568.72;;;3.90;45.99
42289;BME280;30230;47.520;19.016;2023-02-27T10:32:34;99565.84;;;3.84;46.24
42289;BME280;30230;47.520;19.016;2023-02-27T10:34:37;99555.66;;;3.87;45.30
42289;BME280;30230;47.520;19.016;2023-02-27T10:36:38;99569.84;;;4.06;44.88
42289;BME280;30230;47.520;19.016;2023-02-27T10:38:44;99578.72;;;4.06;45.67
42289;BME280;30230;47.520;19.016;2023-02-27T10:40:47;99565.97;;;3.82;45.50
42289;BME280;30230;47.520;19.016;2023-02-27T10:42:48;99564.00;;;3.84;45.45
42289;BME280;30230;47.520;19.016;2023-02-27T10:44:50;99573.59;;;3.77;45.71
42289;BME280;30230;47.520;19.016;2023-02-27T10:46:52;99566.59;;;3.76;46.23
42289;BME280;30230;47.520;19.016;2023-02-27T10:48:53;99565.50;;;3.87;45.98
42289;BME280;30230;47.520;19.016;2023-02-27T10:51:30;99569.41;;;4.10;45.84
42289;BME280;30230;47.520;19.016;2023-02-27T10:53:30;99573.38;;;4.06;45.47
42289;BME280;30230;47.520;19.016;2023-02-27T10:55:34;99565.50;;;4.05;46.30
42289;BME280;30230;47.520;19.016;2023-02-27T10:57:41;99563.88;;;4.12;44.58
42289;BME280;30230;47.520;19.016;2023-02-27T10:59:49;99572.81;;;4.03;45.14
42289;BME280;30230;47.520;19.016;2023-02-27T11:01:56;99569.94;;;4.14;45.43
42289;BME280;30230;47.520;19.016;2023-02-27T11:03:58;99577.34;;;4.20;45.67
42289;BME280;30230;47.520;19.016;2023-02-27T11:06:20;99575.06;;;4.51;45.20
42289;BME280;30230;47.520;19.016;2023-02-27T11:08:27;99568.88;;;4.51;44.99
42289;BME280;30230;47.520;19.016;2023-02-27T11:10:28;99560.41;;;4.63;44.19
42289;BME280;30230;47.520;19.016;2023-02-27T11:12:32;99565.47;;;4.75;44.54
42289;BME280;30230;47.520;19.016;2023-02-27T11:14:33;99567.41;;;4.90;43.52
42289;BME280;30230;47.520;19.016;2023-02-27T11:16:49;99563.34;;;5.12;44.08
42289;BME280;30230;47.520;19.016;2023-02-27T11:18:50;99573.09;;;5.30;42.34
42289;BME280;30230;47.520;19.016;2023-02-27T11:20:52;99575.16;;;5.44;42.87
42289;BME280;30230;47.520;19.016;2023-02-27T11:23:14;99573.84;;;5.56;41.21
42289;BME280;30230;47.520;19.016;2023-02-27T11:25:21;99576.69;;;5.55;48.86
42289;BME280;30230;47.520;19.016;2023-02-27T11:27:23;99578.06;;;5.75;45.06
42289;BME280;30230;47.520;19.016;2023-02-27T11:29:26;99578.41;;;5.80;41.60
42289;BME280;30230;47.520;19.016;2023-02-27T11:31:27;99582.84;;;5.39;41.09
42289;BME280;30230;47.520;19.016;2023-02-27T11:33:34;99580.28;;;5.29;42.04
42289;BME280;30230;47.520;19.016;2023-02-27T11:35:37;99579.03;;;5.07;44.15
42289;BME280;30230;47.520;19.016;2023-02-27T11:37:38;99585.47;;;4.88;44.41
42289;BME280;30230;47.520;19.016;2023-02-27T11:39:47;99579.19;;;4.72;42.12
42289;BME280;30230;47.520;19.016;2023-02-27T11:41:50;99580.69;;;4.74;42.98
42289;BME280;30230;47.520;19.016;2023-02-27T11:43:51;99576.03;;;4.76;42.60
42289;BME280;30230;47.520;19.016;2023-02-27T11:45:58;99579.50;;;4.68;43.24
42289;BME280;30230;47.520;19.016;2023-02-27T11:48:06;99579.94;;;4.56;41.95
42289;BME280;30230;47.520;19.016;2023-02-27T11:52:40;99577.19;;;4.48;42.90
42289;BME280;30230;47.520;19.016;2023-02-27T11:54:52;99581.50;;;4.66;44.90
42289;BME280;30230;47.520;19.016;2023-02-27T11:57:01;99588.50;;;4.93;44.14
42289;BME280;30230;47.520;19.016;2023-02-27T12:05:57;99570.38;;;5.21;41.92
42289;BME280;30230;47.520;19.016;2023-02-27T12:08:05;99569.78;;;5.44;41.65
42289;BME280;30230;47.520;19.016;2023-02-27T12:10:15;99570.28;;;5.47;41.02
42289;BME280;30230;47.520;19.016;2023-02-27T12:12:29;99577.03;;;5.60;41.22
42289;BME280;30230;47.520;19.016;2023-02-27T12:16:53;99576.84;;;5.61;41.61
42289;BME280;30230;47.520;19.016;2023-02-27T12:19:03;99575.88;;;5.70;41.68
42289;BME280;30230;47.520;19.016;2023-02-27T12:21:20;99573.19;;;5.79;42.41
42289;BME280;30230;47.520;19.016;2023-02-27T12:23:58;99582.47;;;6.09;42.09
42289;BME280;30230;47.520;19.016;2023-02-27T12:26:22;99585.16;;;5.92;41.01
42289;BME280;30230;47.520;19.016;2023-02-27T12:30:38;99584.47;;;5.98;39.76